Iii Amigos — WDG9877 — position and weather

sailwx.info

Track history (hours):
 
Tides and Currents Weather Stations Pressure Air Temp Water Temp Dewpoint Dewpoint Depression Visibility Wind Speed Wind Dir Waves Ship Positions

Iii Amigos

Owner: Marine 86, LLC, Aventura, FL. More information available from US FCC via Universal Licensing System.

Last reported at 2018-Jan-21 20:46 UTC. Time now 2018-Feb-18 05:33 UTC.
Position N 25°22' W 080°12'.
Warning: this ship's position is 27 days out of date.

Length 18 m.

Type: Passenger vessel. MMSI: 367592070.

Date/timePositionNaut miles runAvg speedWind from/ knotsBaromVisibWave heightAir tempDewpointWater temp
2018-Jan-21 20:46N 25°22' W 080°12'832.3
2018-Jan-21 20:30N 25°30' W 080°09'1530.8
2018-Jan-21 20:01N 25°45' W 080°07'2 3.1
2018-Jan-21 19:30N 25°46' W 080°08'0 0.0
2018-Jan-21 19:00N 25°46' W 080°08'0 0.0
2018-Jan-21 18:28N 25°46' W 080°08'0 0.0
2018-Jan-21 18:00N 25°46' W 080°08'0 0.0
2018-Jan-21 17:30N 25°46' W 080°08'0 0.0
2018-Jan-21 17:00N 25°46' W 080°08'0 0.0
2018-Jan-21 16:29N 25°46' W 080°08'0 0.0
2018-Jan-21 16:00N 25°46' W 080°08'0 0.0
2018-Jan-21 15:30N 25°46' W 080°08'0 0.0
2018-Jan-21 15:00N 25°46' W 080°08'0 0.0
2018-Jan-21 14:28N 25°46' W 080°08'0 0.0
2018-Jan-21 14:00N 25°46' W 080°08'0 0.0
2018-Jan-21 13:30N 25°46' W 080°08'0 0.0
2018-Jan-21 13:00N 25°46' W 080°08'0 0.0
2018-Jan-21 12:30N 25°46' W 080°08'0 0.0
2018-Jan-21 12:00N 25°46' W 080°08'0 0.0
2018-Jan-21 11:30N 25°46' W 080°08'0 0.0
2018-Jan-21 10:59N 25°46' W 080°08'0 0.0
2018-Jan-21 10:30N 25°46' W 080°08'0 0.0
2018-Jan-21 09:59N 25°46' W 080°08'0 0.0
2018-Jan-21 09:30N 25°46' W 080°08'0 0.0
2018-Jan-21 08:59N 25°46' W 080°08'0 0.0
2018-Jan-21 08:30N 25°46' W 080°08'0 0.0
2018-Jan-21 08:00N 25°46' W 080°08'0 0.0
2018-Jan-21 07:26N 25°46' W 080°08'0 0.0
2018-Jan-21 06:58N 25°46' W 080°08'0 0.0
2018-Jan-21 06:29N 25°46' W 080°08'0 0.0
2018-Jan-21 05:58N 25°46' W 080°08'0 0.0
2018-Jan-21 05:30N 25°46' W 080°08'0 0.0
2018-Jan-21 04:59N 25°46' W 080°08'0 0.0
2018-Jan-21 04:28N 25°46' W 080°08'0 0.0
2018-Jan-21 03:54N 25°46' W 080°08'0 0.0
2018-Jan-21 03:30N 25°46' W 080°08'0 0.0
2018-Jan-21 03:00N 25°46' W 080°08'0 0.0
2018-Jan-21 02:28N 25°46' W 080°08'0 0.0
2018-Jan-21 02:00N 25°46' W 080°08'0 0.0
2018-Jan-21 01:30N 25°46' W 080°08'0 0.0
2018-Jan-21 01:00N 25°46' W 080°08'0 0.0
2018-Jan-21 00:30N 25°46' W 080°08'0 0.0
2018-Jan-20 23:59N 25°46' W 080°08'0 0.0
2018-Jan-20 23:30N 25°46' W 080°08'0 0.0
2018-Jan-20 22:57N 25°46' W 080°08'0 0.0
2018-Jan-20 22:26N 25°46' W 080°08'0 0.0
2018-Jan-20 22:00N 25°46' W 080°08'0 0.0
2018-Jan-20 21:30N 25°46' W 080°08'0 0.0
2018-Jan-20 21:00N 25°46' W 080°08'0 0.3
2018-Jan-20 20:30N 25°46' W 080°08'1 1.2
2018-Jan-20 20:00N 25°46' W 080°09'1019.2
2018-Jan-20 19:31N 25°37' W 080°05'0 0.6
2018-Jan-20 19:00N 25°37' W 080°05'0 0.2
2018-Jan-20 18:30N 25°37' W 080°05'0 0.4
2018-Jan-20 18:01N 25°37' W 080°05'0 0.4
2018-Jan-20 17:30N 25°37' W 080°05'4 8.5
2018-Jan-20 17:00N 25°41' W 080°05'2 4.8
2018-Jan-20 16:30N 25°44' W 080°05'611.2
2018-Jan-20 16:00N 25°49' W 080°05'0 0.5
2018-Jan-20 15:31N 25°49' W 080°05'0 0.1
2018-Jan-20 15:00N 25°49' W 080°05'4 8.5
2018-Jan-20 14:30N 25°45' W 080°07'2 3.3
2018-Jan-20 13:58N 25°46' W 080°08'0 0.0
2018-Jan-20 13:30N 25°46' W 080°08'0 0.0
2018-Jan-20 13:00N 25°46' W 080°08'0 0.0
2018-Jan-20 12:30N 25°46' W 080°08'0 0.0
2018-Jan-20 12:00N 25°46' W 080°08'0 0.0
2018-Jan-20 11:28N 25°46' W 080°08'0 0.0
2018-Jan-20 10:59N 25°46' W 080°08'0 0.0
2018-Jan-20 10:30N 25°46' W 080°08'0 0.0
2018-Jan-20 10:00N 25°46' W 080°08'0 0.0
2018-Jan-20 09:30N 25°46' W 080°08'0 0.0
2018-Jan-20 09:00N 25°46' W 080°08'0 0.0
2018-Jan-20 08:29N 25°46' W 080°08'0 0.0
2018-Jan-20 08:00N 25°46' W 080°08'0 0.0
2018-Jan-20 07:29N 25°46' W 080°08'0 0.0
2018-Jan-20 07:00N 25°46' W 080°08'0 0.0
2018-Jan-20 06:30N 25°46' W 080°08'0 0.0
2018-Jan-20 06:01N 25°46' W 080°08'0 0.0
2018-Jan-20 05:30N 25°46' W 080°08'0 0.0
2018-Jan-20 05:00N 25°46' W 080°08'0 0.0
2018-Jan-20 04:31N 25°46' W 080°08'0 0.0
2018-Jan-20 03:59N 25°46' W 080°08'0 0.1
2018-Jan-20 03:30N 25°46' W 080°08'0 0.1
2018-Jan-20 02:59N 25°46' W 080°08'0 0.0
2018-Jan-20 02:30N 25°46' W 080°08'0 0.0
2018-Jan-20 01:59N 25°46' W 080°08'0 0.0
2018-Jan-20 01:30N 25°46' W 080°08'0 0.0
2018-Jan-20 01:00N 25°46' W 080°08'0 0.0
2018-Jan-20 00:30N 25°46' W 080°08'0 0.0
2018-Jan-20 00:00N 25°46' W 080°08'1019.3
2018-Jan-19 23:30N 25°37' W 080°07'  
Track history (hours):
 
Tides and Currents Weather Stations Pressure Air Temp Water Temp Dewpoint Dewpoint Depression Visibility Wind Speed Wind Dir Waves Ship Positions

Iii Amigos

Owner: Marine 86, LLC, Aventura, FL. More information available from US FCC via Universal Licensing System.

Last reported at 2018-Jan-21 20:46 UTC. Time now 2018-Feb-18 05:33 UTC.
Position N 25°22' W 080°12'.
Warning: this ship's position is 27 days out of date.

Length 18 m.

Type: Passenger vessel. MMSI: 367592070.

Date/timePositionNaut miles runAvg speedWind from/ knotsBaromVisibWave heightAir tempDewpointWater temp
2018-Jan-21 20:46N 25°22' W 080°12'832.3
2018-Jan-21 20:30N 25°30' W 080°09'1530.8
2018-Jan-21 20:01N 25°45' W 080°07'2 3.1
2018-Jan-21 19:30N 25°46' W 080°08'0 0.0
2018-Jan-21 19:00N 25°46' W 080°08'0 0.0
2018-Jan-21 18:28N 25°46' W 080°08'0 0.0
2018-Jan-21 18:00N 25°46' W 080°08'0 0.0
2018-Jan-21 17:30N 25°46' W 080°08'0 0.0
2018-Jan-21 17:00N 25°46' W 080°08'0 0.0
2018-Jan-21 16:29N 25°46' W 080°08'0 0.0
2018-Jan-21 16:00N 25°46' W 080°08'0 0.0
2018-Jan-21 15:30N 25°46' W 080°08'0 0.0
2018-Jan-21 15:00N 25°46' W 080°08'0 0.0
2018-Jan-21 14:28N 25°46' W 080°08'0 0.0
2018-Jan-21 14:00N 25°46' W 080°08'0 0.0
2018-Jan-21 13:30N 25°46' W 080°08'0 0.0
2018-Jan-21 13:00N 25°46' W 080°08'0 0.0
2018-Jan-21 12:30N 25°46' W 080°08'0 0.0
2018-Jan-21 12:00N 25°46' W 080°08'0 0.0
2018-Jan-21 11:30N 25°46' W 080°08'0 0.0
2018-Jan-21 10:59N 25°46' W 080°08'0 0.0
2018-Jan-21 10:30N 25°46' W 080°08'0 0.0
2018-Jan-21 09:59N 25°46' W 080°08'0 0.0
2018-Jan-21 09:30N 25°46' W 080°08'0 0.0
2018-Jan-21 08:59N 25°46' W 080°08'0 0.0
2018-Jan-21 08:30N 25°46' W 080°08'0 0.0
2018-Jan-21 08:00N 25°46' W 080°08'0 0.0
2018-Jan-21 07:26N 25°46' W 080°08'0 0.0
2018-Jan-21 06:58N 25°46' W 080°08'0 0.0
2018-Jan-21 06:29N 25°46' W 080°08'0 0.0
2018-Jan-21 05:58N 25°46' W 080°08'0 0.0
2018-Jan-21 05:30N 25°46' W 080°08'0 0.0
2018-Jan-21 04:59N 25°46' W 080°08'0 0.0
2018-Jan-21 04:28N 25°46' W 080°08'0 0.0
2018-Jan-21 03:54N 25°46' W 080°08'0 0.0
2018-Jan-21 03:30N 25°46' W 080°08'0 0.0
2018-Jan-21 03:00N 25°46' W 080°08'0 0.0
2018-Jan-21 02:28N 25°46' W 080°08'0 0.0
2018-Jan-21 02:00N 25°46' W 080°08'0 0.0
2018-Jan-21 01:30N 25°46' W 080°08'0 0.0
2018-Jan-21 01:00N 25°46' W 080°08'0 0.0
2018-Jan-21 00:30N 25°46' W 080°08'0 0.0
2018-Jan-20 23:59N 25°46' W 080°08'0 0.0
2018-Jan-20 23:30N 25°46' W 080°08'0 0.0
2018-Jan-20 22:57N 25°46' W 080°08'0 0.0
2018-Jan-20 22:26N 25°46' W 080°08'0 0.0
2018-Jan-20 22:00N 25°46' W 080°08'0 0.0
2018-Jan-20 21:30N 25°46' W 080°08'0 0.0
2018-Jan-20 21:00N 25°46' W 080°08'0 0.3
2018-Jan-20 20:30N 25°46' W 080°08'1 1.2
2018-Jan-20 20:00N 25°46' W 080°09'1019.2
2018-Jan-20 19:31N 25°37' W 080°05'0 0.6
2018-Jan-20 19:00N 25°37' W 080°05'0 0.2
2018-Jan-20 18:30N 25°37' W 080°05'0 0.4
2018-Jan-20 18:01N 25°37' W 080°05'0 0.4
2018-Jan-20 17:30N 25°37' W 080°05'4 8.5
2018-Jan-20 17:00N 25°41' W 080°05'2 4.8
2018-Jan-20 16:30N 25°44' W 080°05'611.2
2018-Jan-20 16:00N 25°49' W 080°05'0 0.5
2018-Jan-20 15:31N 25°49' W 080°05'0 0.1
2018-Jan-20 15:00N 25°49' W 080°05'4 8.5
2018-Jan-20 14:30N 25°45' W 080°07'2 3.3
2018-Jan-20 13:58N 25°46' W 080°08'0 0.0
2018-Jan-20 13:30N 25°46' W 080°08'0 0.0
2018-Jan-20 13:00N 25°46' W 080°08'0 0.0
2018-Jan-20 12:30N 25°46' W 080°08'0 0.0
2018-Jan-20 12:00N 25°46' W 080°08'0 0.0
2018-Jan-20 11:28N 25°46' W 080°08'0 0.0
2018-Jan-20 10:59N 25°46' W 080°08'0 0.0
2018-Jan-20 10:30N 25°46' W 080°08'0 0.0
2018-Jan-20 10:00N 25°46' W 080°08'0 0.0
2018-Jan-20 09:30N 25°46' W 080°08'0 0.0
2018-Jan-20 09:00N 25°46' W 080°08'0 0.0
2018-Jan-20 08:29N 25°46' W 080°08'0 0.0
2018-Jan-20 08:00N 25°46' W 080°08'0 0.0
2018-Jan-20 07:29N 25°46' W 080°08'0 0.0
2018-Jan-20 07:00N 25°46' W 080°08'0 0.0
2018-Jan-20 06:30N 25°46' W 080°08'0 0.0
2018-Jan-20 06:01N 25°46' W 080°08'0 0.0
2018-Jan-20 05:30N 25°46' W 080°08'0 0.0
2018-Jan-20 05:00N 25°46' W 080°08'0 0.0
2018-Jan-20 04:31N 25°46' W 080°08'0 0.0
2018-Jan-20 03:59N 25°46' W 080°08'0 0.1
2018-Jan-20 03:30N 25°46' W 080°08'0 0.1
2018-Jan-20 02:59N 25°46' W 080°08'0 0.0
2018-Jan-20 02:30N 25°46' W 080°08'0 0.0
2018-Jan-20 01:59N 25°46' W 080°08'0 0.0
2018-Jan-20 01:30N 25°46' W 080°08'0 0.0
2018-Jan-20 01:00N 25°46' W 080°08'0 0.0
2018-Jan-20 00:30N 25°46' W 080°08'0 0.0
2018-Jan-20 00:00N 25°46' W 080°08'1019.3
2018-Jan-19 23:30N 25°37' W 080°07'  

Dump ship's entire track history